EYVI Airport Information

Runway Information
Runway 02 Length 8251 ft width 164 ft
Elevation 594 ft Threshold 0 ft Heading 22
Runway 20 Length 8251 ft Width 164 ft
Elevation 646 ft Threshold 0 ft Heading 202
Airport Frequencies
Type APP Name APP Frequency 120.7 MHZ
Type ATIS Name ATIS Frequency 125.8 MHZ
Type TWR Name TWR Frequency 118.2 MHZ
Airport Navaids
Type NDB Name Vilnius Frequency 385 KHZ
Type VOR-DME Name Vilnius Frequency 113800 KHZ
Airport Weather Information & NOTAM
ADDS - METARS form results

(2326 UTC 01 June 2020)
Data provider http://aviationweather.gov/metar/data/
 
METAR text: EYVI 012320Z 01010KT CAVOK 07/02 Q1015 NOSIG
Conditions at: EYVI (VILNIUS INTL , LT) observed 2320 UTC 01 June 2020
Temperature: 7.0°C (45°F)
Dewpoint: 2.0°C (36°F) [RH = 70%]
Pressure (altimeter): 29.97 inches Hg (1015.0 mb)
Winds: from the N (10 degrees) at 12 MPH (10 knots; 5.1 m/s)
Visibility: 6 or more miles (10+ km)
Ceiling: ceiling and visibility are OK
Clouds: unknown
Weather: no significant weather observed at this time

METAR text: EYVI 012250Z 02009KT CAVOK 08/02 Q1015 NOSIG
Conditions at: EYVI (VILNIUS INTL , LT) observed 2250 UTC 01 June 2020
Temperature: 8.0°C (46°F)
Dewpoint: 2.0°C (36°F) [RH = 66%]
Pressure (altimeter): 29.97 inches Hg (1015.0 mb)
Winds: from the NNE (20 degrees) at 10 MPH (9 knots; 4.6 m/s)
Visibility: 6 or more miles (10+ km)
Ceiling: ceiling and visibility are OK
Clouds: unknown
Weather: no significant weather observed at this time

Forecast for: EYVI (VILNIUS INTL , LT)
Text: TAF EYVI 012300Z 0200/0224 01008KT 9000 NSC
Forecast period: 0000 to 0600 UTC 02 June 2020
Forecast type: FROM: standard forecast or significant change
Winds: from the N (10 degrees) at 9 MPH (8 knots; 4.1 m/s)
Visibility: 6 miles (9 km)
Ceiling: unknown
Clouds: missing
Weather: no significant weather forecast for this period
Text: BECMG 0206/0208 03018G28KT
Forecast period: 0600 to 1500 UTC 02 June 2020
Forecast type: BECOMING: Conditions expected to become as follows by 0800 UTC 02 June 2020
Winds: from the NNE (30 degrees) at 21 MPH (18 knots; 9.3 m/s)
gusting to 32 MPH (28 knots; 14.4 m/s)
Visibility: 6 miles (9 km)
Ceiling: unknown
Clouds: missing
Weather: no significant weather forecast for this period
Text: BECMG 0215/0217 07010KT SCT018CB BKN025
Forecast period: 1500 UTC 02 June 2020 to 0000 UTC 03 June 2020
Forecast type: BECOMING: Conditions expected to become as follows by 1700 UTC 02 June 2020
Winds: from the ENE (70 degrees) at 12 MPH (10 knots; 5.1 m/s)
Visibility: 6 miles (9 km)
Ceiling: 2500 feet AGL
Clouds: scattered clouds at 1800 feet AGL
broken clouds at 2500 feet AGL
Weather: no significant weather forecast for this period